createdAt,value
2022-09-04T00:00:08.702Z,4.40
2022-09-04T00:01:26.087Z,5.00
2022-09-04T00:02:47.096Z,3.80
2022-09-04T00:03:59.166Z,5.00
2022-09-04T00:05:06.136Z,7.83
2022-09-04T00:06:14.534Z,5.63
2022-09-04T00:07:24.339Z,4.27
2022-09-04T00:08:42.723Z,4.67
2022-09-04T00:09:53.894Z,7.87
2022-09-04T00:11:00.572Z,5.73
2022-09-04T00:12:06.430Z,5.53
2022-09-04T00:13:13.396Z,4.07
2022-09-04T00:14:18.528Z,4.80
2022-09-04T00:15:25.047Z,4.23
2022-09-04T00:16:34.403Z,5.63
2022-09-04T00:17:42.653Z,6.80
2022-09-04T00:18:52.122Z,6.60
2022-09-04T00:19:59.558Z,4.30
2022-09-04T00:21:07.210Z,4.80
2022-09-04T00:22:25.910Z,5.17
2022-09-04T00:23:35.416Z,7.60
2022-09-04T00:24:41.732Z,4.90
2022-09-04T00:25:53.382Z,7.03
2022-09-04T00:27:02.354Z,4.70
2022-09-04T00:28:09.492Z,4.00
2022-09-04T00:29:21.275Z,4.63
2022-09-04T00:30:23.695Z,4.33
2022-09-04T00:31:33.971Z,5.27
2022-09-04T00:32:41.470Z,5.17
2022-09-04T00:33:51.902Z,4.80
2022-09-04T00:35:10.441Z,5.40
2022-09-04T00:36:14.569Z,4.83
2022-09-04T00:37:23.042Z,5.23
2022-09-04T00:38:37.581Z,6.10
2022-09-04T00:39:46.715Z,4.30
2022-09-04T00:40:58.736Z,4.90
2022-09-04T00:42:14.504Z,3.97
2022-09-04T00:43:50.363Z,5.80
2022-09-04T00:45:05.322Z,5.60
2022-09-04T00:46:31.010Z,4.73
2022-09-04T00:48:13.043Z,4.50
2022-09-04T00:49:36.427Z,6.13
2022-09-04T00:50:57.221Z,5.10
2022-09-04T00:52:11.964Z,5.50
2022-09-04T00:53:32.699Z,5.40
2022-09-04T00:54:48.808Z,6.30
2022-09-04T00:56:03.121Z,6.40
2022-09-04T00:57:43.240Z,5.30
2022-09-04T00:59:06.086Z,5.43
2022-09-04T01:00:10.416Z,5.80
2022-09-04T01:01:22.321Z,5.97
2022-09-04T01:02:38.167Z,6.30
2022-09-04T01:03:52.639Z,5.40
2022-09-04T01:05:03.226Z,4.87
2022-09-04T01:06:32.709Z,5.23
2022-09-04T01:07:49.467Z,6.07
2022-09-04T01:09:13.340Z,6.30
2022-09-04T01:10:41.758Z,5.90
2022-09-04T01:11:53.704Z,5.97
2022-09-04T01:13:04.712Z,4.40
2022-09-04T01:14:14.644Z,10.10
2022-09-04T01:15:25.526Z,6.40
2022-09-04T01:16:34.059Z,5.43
2022-09-04T01:17:43.017Z,5.20
2022-09-04T01:18:53.157Z,5.93
2022-09-04T01:20:03.734Z,8.50
2022-09-04T01:21:35.304Z,5.30
2022-09-04T01:22:53.840Z,5.67
2022-09-04T01:24:20.070Z,7.30
2022-09-04T01:25:34.728Z,6.13
2022-09-04T01:26:47.765Z,8.43
2022-09-04T01:27:54.678Z,5.20
2022-09-04T01:29:11.482Z,5.03
2022-09-04T01:30:16.545Z,5.77
2022-09-04T01:31:28.058Z,5.23
2022-09-04T01:32:51.925Z,4.43
2022-09-04T01:34:05.664Z,5.70
2022-09-04T01:35:20.302Z,6.60
2022-09-04T01:36:41.198Z,4.57
2022-09-04T01:37:53.915Z,4.90
2022-09-04T01:38:58.584Z,5.50
2022-09-04T01:40:16.842Z,6.57
2022-09-04T01:41:23.355Z,5.30
2022-09-04T01:42:35.715Z,4.93
2022-09-04T01:43:37.475Z,5.13
2022-09-04T01:44:40.839Z,4.47
2022-09-04T01:46:11.932Z,6.23
2022-09-04T01:47:22.358Z,6.50
2022-09-04T01:48:37.103Z,5.03
2022-09-04T01:49:46.243Z,6.43
2022-09-04T01:50:52.601Z,7.10
2022-09-04T01:52:06.416Z,6.30
2022-09-04T01:53:12.790Z,7.57
2022-09-04T01:54:35.233Z,4.73
2022-09-04T01:55:44.871Z,4.83
2022-09-04T01:57:04.391Z,5.10
2022-09-04T01:58:17.412Z,5.03
2022-09-04T01:59:27.795Z,6.40
2022-09-04T02:00:35.436Z,6.60
2022-09-04T02:01:47.501Z,5.40
2022-09-04T02:02:57.345Z,5.00
2022-09-04T02:04:08.172Z,8.17
2022-09-04T02:05:19.867Z,5.83
2022-09-04T02:06:30.697Z,4.53
2022-09-04T02:07:37.304Z,5.50
2022-09-04T02:08:56.894Z,5.13
2022-09-04T02:10:08.286Z,5.77
2022-09-04T02:11:16.302Z,4.33
2022-09-04T02:12:31.025Z,5.57
2022-09-04T02:13:44.916Z,5.57
2022-09-04T02:14:56.911Z,4.93
2022-09-04T02:16:11.110Z,5.40
2022-09-04T02:17:18.555Z,5.23
2022-09-04T02:18:33.908Z,6.83
2022-09-04T02:19:47.680Z,5.83
2022-09-04T02:20:56.560Z,5.50
2022-09-04T02:22:07.772Z,5.30
2022-09-04T02:23:18.245Z,5.93
2022-09-04T02:24:29.767Z,4.40
2022-09-04T02:25:36.193Z,6.17
2022-09-04T02:26:46.890Z,4.90
2022-09-04T02:27:56.207Z,5.03
2022-09-04T02:29:09.515Z,5.40
2022-09-04T02:30:13.952Z,5.23
2022-09-04T02:31:22.411Z,5.23
2022-09-04T02:32:30.945Z,8.50
2022-09-04T02:33:39.449Z,5.87
2022-09-04T02:34:46.861Z,5.93
2022-09-04T02:35:58.489Z,5.33
2022-09-04T02:37:06.409Z,6.00
2022-09-04T02:38:19.413Z,5.20
2022-09-04T02:39:33.902Z,5.40
2022-09-04T02:40:47.488Z,6.37
2022-09-04T02:42:03.752Z,7.17
2022-09-04T02:43:19.614Z,5.80
2022-09-04T02:44:34.384Z,5.07
2022-09-04T02:45:44.816Z,5.73
2022-09-04T02:47:02.758Z,6.40
2022-09-04T02:48:13.931Z,6.10
2022-09-04T02:49:25.715Z,5.67
2022-09-04T02:50:46.187Z,6.73
2022-09-04T02:52:01.759Z,5.97
2022-09-04T02:53:18.386Z,6.80
2022-09-04T02:54:40.116Z,7.40
2022-09-04T02:55:56.384Z,5.70
2022-09-04T02:57:09.834Z,6.20
2022-09-04T02:58:19.724Z,6.70
2022-09-04T02:59:36.269Z,6.40
2022-09-04T03:00:46.273Z,6.27
2022-09-04T03:01:54.192Z,6.03
2022-09-04T03:03:03.505Z,6.97
2022-09-04T03:04:14.165Z,6.07
2022-09-04T03:05:20.779Z,5.67
2022-09-04T03:06:33.040Z,6.60
2022-09-04T03:07:37.345Z,6.40
2022-09-04T03:08:47.030Z,7.17
2022-09-04T03:09:55.203Z,11.10
2022-09-04T03:11:03.785Z,7.30
2022-09-04T03:12:26.583Z,7.23
2022-09-04T03:13:33.380Z,7.37
2022-09-04T03:14:45.311Z,10.13
2022-09-04T03:15:55.205Z,7.77
2022-09-04T03:17:03.383Z,7.20
2022-09-04T03:18:16.820Z,9.87
2022-09-04T03:19:23.446Z,7.63
2022-09-04T03:20:29.255Z,8.50
2022-09-04T03:21:40.666Z,9.67
2022-09-04T03:22:49.459Z,9.00
2022-09-04T03:23:55.695Z,8.13
2022-09-04T03:25:12.978Z,8.40
2022-09-04T03:26:24.727Z,7.10
2022-09-04T03:27:28.466Z,7.70
2022-09-04T03:28:40.629Z,10.20
2022-09-04T03:29:53.610Z,8.00
2022-09-04T03:30:58.302Z,7.47
2022-09-04T03:32:17.178Z,9.87
2022-09-04T03:33:29.617Z,7.30
2022-09-04T03:34:45.707Z,9.93
2022-09-04T03:35:55.394Z,7.27
2022-09-04T03:37:13.393Z,9.27
2022-09-04T03:38:23.965Z,7.97
2022-09-04T03:39:35.781Z,7.37
2022-09-04T03:40:42.894Z,6.93
2022-09-04T03:41:55.366Z,9.57
2022-09-04T03:43:11.283Z,8.40
2022-09-04T03:44:24.410Z,11.17
2022-09-04T03:45:39.019Z,7.53
2022-09-04T03:46:52.882Z,7.70
2022-09-04T03:48:10.010Z,6.93
2022-09-04T03:49:22.451Z,7.07
2022-09-04T03:50:32.636Z,9.80
2022-09-04T03:51:43.924Z,9.37
2022-09-04T03:52:57.578Z,9.30
2022-09-04T03:54:07.953Z,7.73
2022-09-04T03:55:25.627Z,8.77
2022-09-04T03:56:39.774Z,11.27
2022-09-04T03:58:04.722Z,8.33
2022-09-04T03:59:08.617Z,8.37
2022-09-04T04:00:18.147Z,8.57
2022-09-04T04:01:31.143Z,8.10
2022-09-04T04:02:48.203Z,8.50
2022-09-04T04:04:05.460Z,9.17
2022-09-04T04:05:29.092Z,6.80
2022-09-04T04:06:38.207Z,9.57
2022-09-04T04:07:50.176Z,10.87
2022-09-04T04:09:11.780Z,8.20
2022-09-04T04:10:24.976Z,8.50
2022-09-04T04:11:55.603Z,7.83
2022-09-04T04:13:19.314Z,10.93
2022-09-04T04:14:46.105Z,8.03
2022-09-04T04:16:04.232Z,10.83
2022-09-04T04:17:23.732Z,8.67
2022-09-04T04:18:40.531Z,8.30
2022-09-04T04:19:53.131Z,8.23
2022-09-04T04:21:07.199Z,9.80
2022-09-04T04:22:33.275Z,7.87
2022-09-04T04:24:07.585Z,12.97
2022-09-04T04:25:25.144Z,8.83
2022-09-04T04:26:40.681Z,8.53
2022-09-04T04:27:55.973Z,9.43
2022-09-04T04:29:16.287Z,13.20
2022-09-04T04:30:18.747Z,14.40
2022-09-04T04:31:29.177Z,8.43
2022-09-04T04:32:54.057Z,8.47
2022-09-04T04:34:06.726Z,9.37
2022-09-04T04:35:25.085Z,11.87
2022-09-04T04:36:36.683Z,11.20
2022-09-04T04:37:51.908Z,9.40
2022-09-04T04:39:15.431Z,7.63
2022-09-04T04:40:32.682Z,8.80
2022-09-04T04:42:07.751Z,8.40
2022-09-04T04:43:17.498Z,8.43
2022-09-04T04:44:48.165Z,7.93
2022-09-04T04:45:57.025Z,10.57
2022-09-04T04:47:11.475Z,9.57
2022-09-04T04:48:52.942Z,10.40
2022-09-04T04:50:08.182Z,10.80
2022-09-04T04:51:23.087Z,8.13
2022-09-04T04:52:40.844Z,8.97
2022-09-04T04:53:52.096Z,11.87
2022-09-04T04:55:16.447Z,11.37
2022-09-04T04:56:26.378Z,14.27
2022-09-04T04:57:36.690Z,9.60
2022-09-04T04:58:58.793Z,7.63
2022-09-04T05:00:08.841Z,8.03
2022-09-04T05:01:26.236Z,9.03
2022-09-04T05:02:32.045Z,7.70
2022-09-04T05:03:46.001Z,7.53
2022-09-04T05:04:54.844Z,7.13
2022-09-04T05:06:07.011Z,6.60
2022-09-04T05:07:19.633Z,7.40
2022-09-04T05:08:36.773Z,7.43
2022-09-04T05:09:47.880Z,7.67
2022-09-04T05:10:56.027Z,8.13
2022-09-04T05:12:03.405Z,7.60
2022-09-04T05:13:19.007Z,8.23
2022-09-04T05:14:33.406Z,7.10
2022-09-04T05:15:58.449Z,8.17
2022-09-04T05:17:14.926Z,8.30
2022-09-04T05:18:23.055Z,6.63
2022-09-04T05:19:33.577Z,7.50
2022-09-04T05:20:42.659Z,7.77
2022-09-04T05:21:54.600Z,8.07
2022-09-04T05:23:06.580Z,7.20
2022-09-04T05:24:17.355Z,7.90
2022-09-04T05:25:25.652Z,6.93
2022-09-04T05:26:34.406Z,8.80
2022-09-04T05:27:54.067Z,6.80
2022-09-04T05:29:03.038Z,8.40
2022-09-04T05:30:10.423Z,7.10
2022-09-04T05:31:21.931Z,7.70
2022-09-04T05:32:29.058Z,7.10
2022-09-04T05:33:39.513Z,6.60
2022-09-04T05:35:02.056Z,9.30
2022-09-04T05:36:12.528Z,8.60
2022-09-04T05:37:22.159Z,8.17
2022-09-04T05:38:37.124Z,6.90
2022-09-04T05:39:54.631Z,7.70
2022-09-04T05:41:07.050Z,7.20
2022-09-04T05:42:23.921Z,10.30
2022-09-04T05:43:40.832Z,8.33
2022-09-04T05:44:58.189Z,7.33
2022-09-04T05:46:08.372Z,10.43
2022-09-04T05:47:27.503Z,8.27
2022-09-04T05:48:43.508Z,8.10
2022-09-04T05:50:08.317Z,7.87
2022-09-04T05:51:45.083Z,6.77
2022-09-04T05:53:19.179Z,8.83
2022-09-04T05:54:39.148Z,6.83
2022-09-04T05:56:09.511Z,8.97
2022-09-04T05:57:21.968Z,7.27
2022-09-04T05:58:50.116Z,7.63
2022-09-04T06:00:12.588Z,8.63
2022-09-04T06:01:30.265Z,9.97
2022-09-04T06:03:05.780Z,7.70
2022-09-04T06:04:47.285Z,6.40
2022-09-04T06:06:07.480Z,7.60
2022-09-04T06:07:18.225Z,9.20
2022-09-04T06:08:33.414Z,7.50
2022-09-04T06:09:51.821Z,7.60
2022-09-04T06:11:09.313Z,7.17
2022-09-04T06:12:26.470Z,6.37
2022-09-04T06:13:59.298Z,6.87
2022-09-04T06:15:20.926Z,9.53
2022-09-04T06:16:37.273Z,7.57
2022-09-04T06:18:06.802Z,6.70
2022-09-04T06:19:28.950Z,8.30
2022-09-04T06:20:59.145Z,6.80
2022-09-04T06:22:15.268Z,7.10
2022-09-04T06:23:43.842Z,6.97
2022-09-04T06:25:13.572Z,5.93
2022-09-04T06:26:41.187Z,7.80
2022-09-04T06:28:04.293Z,7.10
2022-09-04T06:29:18.173Z,6.40
2022-09-04T06:30:20.021Z,8.73
2022-09-04T06:31:47.972Z,9.13
2022-09-04T06:33:14.107Z,6.10
2022-09-04T06:34:25.722Z,7.50
2022-09-04T06:35:44.496Z,6.13
2022-09-04T06:36:59.942Z,11.50
2022-09-04T06:38:28.373Z,7.50
2022-09-04T06:39:47.274Z,12.43
2022-09-04T06:41:08.689Z,6.47
2022-09-04T06:42:36.615Z,9.40
2022-09-04T06:43:44.385Z,6.33
2022-09-04T06:45:09.731Z,7.17
2022-09-04T06:46:21.516Z,5.83
2022-09-04T06:47:33.751Z,8.20
2022-09-04T06:48:47.324Z,5.30
2022-09-04T06:50:07.255Z,6.70
2022-09-04T06:51:32.331Z,5.60
2022-09-04T06:52:45.825Z,6.13
2022-09-04T06:54:00.253Z,5.73
2022-09-04T06:55:13.635Z,6.97
2022-09-04T06:56:42.486Z,6.13
2022-09-04T06:58:09.007Z,6.30
2022-09-04T06:59:44.417Z,4.83
2022-09-04T07:00:53.363Z,5.10
2022-09-04T07:02:08.132Z,5.60
2022-09-04T07:03:45.933Z,5.60
2022-09-04T07:04:59.698Z,6.20
2022-09-04T07:06:11.278Z,6.43
2022-09-04T07:07:23.045Z,5.63
2022-09-04T07:08:39.475Z,7.60
2022-09-04T07:09:46.364Z,6.60
2022-09-04T07:11:00.501Z,5.97
2022-09-04T07:12:33.801Z,7.37
2022-09-04T07:14:07.762Z,5.83
2022-09-04T07:15:29.116Z,6.77
2022-09-04T07:16:38.915Z,7.43
2022-09-04T07:17:46.504Z,8.23
2022-09-04T07:19:38.403Z,4.97
2022-09-04T07:20:56.601Z,5.37
2022-09-04T07:22:11.660Z,4.67
2022-09-04T07:23:25.658Z,5.87
2022-09-04T07:24:48.369Z,5.80
2022-09-04T07:26:02.411Z,5.63
2022-09-04T07:27:12.130Z,5.30
2022-09-04T07:28:49.404Z,5.70
2022-09-04T07:30:00.816Z,7.13
2022-09-04T07:31:09.310Z,6.20
2022-09-04T07:32:18.866Z,7.50
2022-09-04T07:33:31.767Z,5.23
2022-09-04T07:34:42.811Z,5.60
2022-09-04T07:35:51.558Z,7.10
2022-09-04T07:36:59.125Z,5.30
2022-09-04T07:38:09.617Z,6.13
2022-09-04T07:39:19.132Z,7.27
2022-09-04T07:40:28.050Z,4.97
2022-09-04T07:41:40.494Z,6.90
2022-09-04T07:42:49.440Z,6.70
2022-09-04T07:44:03.750Z,6.00
2022-09-04T07:45:16.490Z,7.17
2022-09-04T07:46:26.381Z,5.53
2022-09-04T07:47:35.246Z,7.67
2022-09-04T07:48:44.191Z,5.30
2022-09-04T07:50:00.681Z,6.47
2022-09-04T07:51:10.512Z,9.80
2022-09-04T07:52:22.684Z,6.13
2022-09-04T07:53:35.839Z,9.63
2022-09-04T07:54:58.547Z,6.37
2022-09-04T07:56:06.565Z,10.33
2022-09-04T07:57:32.892Z,5.37
2022-09-04T07:59:20.388Z,8.43
2022-09-04T08:00:23.543Z,7.00
2022-09-04T08:01:42.297Z,7.43
2022-09-04T08:03:25.524Z,7.13
2022-09-04T08:05:02.467Z,6.57
2022-09-04T08:06:18.296Z,6.73
2022-09-04T08:07:30.203Z,9.30
2022-09-04T08:08:56.009Z,9.67
2022-09-04T08:10:13.547Z,5.77
2022-09-04T08:11:32.273Z,7.93
2022-09-04T08:12:56.255Z,13.53
2022-09-04T08:14:17.098Z,8.73
2022-09-04T08:15:21.964Z,7.30
2022-09-04T08:16:31.082Z,10.60
2022-09-04T08:17:49.141Z,6.33
2022-09-04T08:19:06.880Z,6.57
2022-09-04T08:20:19.509Z,8.20
2022-09-04T08:21:28.835Z,7.80
2022-09-04T08:22:42.507Z,6.03
2022-09-04T08:24:11.763Z,6.60
2022-09-04T08:25:26.884Z,10.90
2022-09-04T08:26:39.129Z,7.23
2022-09-04T08:27:54.319Z,7.90
2022-09-04T08:29:33.333Z,6.40
2022-09-04T08:30:41.272Z,5.90
2022-09-04T08:31:53.909Z,6.57
2022-09-04T08:33:25.642Z,6.23
2022-09-04T08:34:46.179Z,6.40
2022-09-04T08:35:55.335Z,7.30
2022-09-04T08:37:10.573Z,5.87
2022-09-04T08:38:29.056Z,7.23
2022-09-04T08:39:41.725Z,7.63
2022-09-04T08:41:21.326Z,6.67
2022-09-04T08:42:59.096Z,4.93
2022-09-04T08:44:43.771Z,9.50
2022-09-04T08:46:29.896Z,7.37
2022-09-04T08:48:08.022Z,7.03
2022-09-04T08:49:55.159Z,5.70
2022-09-04T08:51:34.738Z,5.50
2022-09-04T08:53:13.694Z,6.80
2022-09-04T08:54:48.870Z,4.70
2022-09-04T08:55:59.592Z,5.10
2022-09-04T08:57:24.072Z,5.90
2022-09-04T08:59:05.276Z,7.13
2022-09-04T09:00:12.471Z,6.60
2022-09-04T09:01:51.654Z,4.87
2022-09-04T09:03:37.829Z,6.13
2022-09-04T09:05:17.370Z,5.13
2022-09-04T09:06:52.229Z,5.90
2022-09-04T09:08:11.654Z,5.17
2022-09-04T09:10:04.883Z,5.60
2022-09-04T09:11:43.535Z,4.90
2022-09-04T09:13:12.723Z,7.23
2022-09-04T09:14:53.034Z,6.33
2022-09-04T09:16:19.784Z,7.37
2022-09-04T09:17:38.366Z,6.70
2022-09-04T09:18:56.376Z,8.53
2022-09-04T09:20:01.342Z,5.60
2022-09-04T09:21:08.355Z,6.83
2022-09-04T09:22:24.748Z,8.20
2022-09-04T09:23:38.694Z,4.13
2022-09-04T09:25:01.267Z,6.17
2022-09-04T09:26:28.327Z,5.67
2022-09-04T09:28:11.329Z,6.17
2022-09-04T09:29:33.962Z,5.70
2022-09-04T09:30:58.777Z,4.40
2022-09-04T09:32:40.027Z,4.47
2022-09-04T09:34:14.909Z,7.10
2022-09-04T09:35:59.201Z,5.10
2022-09-04T09:37:37.460Z,7.10
2022-09-04T09:39:21.576Z,5.80
2022-09-04T09:40:39.672Z,3.80
2022-09-04T09:42:28.329Z,5.47
2022-09-04T09:44:12.730Z,6.70
2022-09-04T09:45:35.869Z,4.30
2022-09-04T09:47:05.115Z,3.70
2022-09-04T09:48:41.902Z,4.17
2022-09-04T09:50:03.615Z,6.47
2022-09-04T09:51:46.310Z,4.67
2022-09-04T09:53:25.631Z,7.83
2022-09-04T09:55:04.339Z,4.00
2022-09-04T09:56:42.788Z,3.40
2022-09-04T09:58:24.869Z,4.23
2022-09-04T09:59:59.528Z,4.90
2022-09-04T10:01:15.180Z,4.10
2022-09-04T10:02:42.384Z,8.63
2022-09-04T10:04:34.449Z,7.07
2022-09-04T10:06:03.045Z,6.00
2022-09-04T10:07:45.217Z,3.57
2022-09-04T10:09:26.142Z,5.60
2022-09-04T10:10:54.003Z,4.90
2022-09-04T10:12:20.000Z,3.30
2022-09-04T10:13:50.195Z,5.00
2022-09-04T10:15:17.990Z,4.47
2022-09-04T10:17:03.534Z,4.33
2022-09-04T10:18:33.352Z,3.37
2022-09-04T10:20:04.962Z,7.93
2022-09-04T10:21:49.528Z,4.17
2022-09-04T10:23:37.250Z,3.57
2022-09-04T10:25:10.803Z,3.20
2022-09-04T10:26:44.281Z,3.70
2022-09-04T10:28:19.921Z,5.03
2022-09-04T10:29:56.371Z,6.93
2022-09-04T10:31:27.781Z,5.00
2022-09-04T10:33:07.953Z,11.50
2022-09-04T10:34:28.957Z,3.50
2022-09-04T10:35:43.749Z,3.63
2022-09-04T10:36:54.063Z,9.10
2022-09-04T10:38:19.510Z,3.30
2022-09-04T10:39:50.647Z,3.23
2022-09-04T10:41:17.100Z,5.77
2022-09-04T10:42:33.690Z,4.70
2022-09-04T10:43:57.981Z,4.43
2022-09-04T10:45:16.925Z,5.73
2022-09-04T10:46:26.191Z,4.57
2022-09-04T10:47:51.212Z,3.00
2022-09-04T10:49:18.968Z,9.90
2022-09-04T10:50:30.268Z,4.40
2022-09-04T10:52:08.792Z,4.20
2022-09-04T10:53:38.753Z,3.73
2022-09-04T10:55:10.157Z,3.40
2022-09-04T10:56:23.293Z,3.60
2022-09-04T10:57:42.000Z,3.50
2022-09-04T10:59:04.093Z,3.93
2022-09-04T11:00:08.816Z,3.27
2022-09-04T11:01:37.551Z,3.83
2022-09-04T11:03:13.745Z,5.00
2022-09-04T11:04:37.601Z,3.93
2022-09-04T11:05:54.065Z,4.37
2022-09-04T11:07:46.909Z,3.40
2022-09-04T11:09:30.491Z,3.70
2022-09-04T11:10:56.504Z,7.70
2022-09-04T11:12:11.413Z,4.63
2022-09-04T11:14:03.622Z,6.73
2022-09-04T11:15:45.090Z,5.10
2022-09-04T11:17:09.304Z,2.73
2022-09-04T11:18:26.850Z,3.50
2022-09-04T11:20:18.528Z,3.30
2022-09-04T11:21:57.024Z,5.33
2022-09-04T11:23:32.625Z,3.80
2022-09-04T11:25:09.332Z,3.30
2022-09-04T11:27:06.050Z,4.63
2022-09-04T11:28:47.242Z,4.23
2022-09-04T11:30:03.369Z,8.03
2022-09-04T11:31:25.322Z,3.87
2022-09-04T11:32:55.984Z,3.00
2022-09-04T11:34:41.646Z,2.93
2022-09-04T11:36:18.824Z,2.57
2022-09-04T11:38:00.852Z,4.07
2022-09-04T11:39:39.381Z,2.73
2022-09-04T11:41:28.038Z,3.20
2022-09-04T11:42:41.333Z,2.80
2022-09-04T11:44:22.201Z,2.77
2022-09-04T11:46:10.880Z,2.60
2022-09-04T11:47:42.282Z,2.87
2022-09-04T11:49:09.900Z,3.70
2022-09-04T11:50:20.464Z,2.57
2022-09-04T11:51:44.931Z,2.23
2022-09-04T11:53:14.937Z,3.67
2022-09-04T11:54:51.737Z,2.50
2022-09-04T11:56:13.705Z,5.77
2022-09-04T11:57:30.135Z,2.80
2022-09-04T11:59:04.884Z,6.40
2022-09-04T12:00:13.329Z,3.10
2022-09-04T12:01:32.894Z,4.60
2022-09-04T12:03:00.954Z,4.70
2022-09-04T12:04:25.821Z,4.87
2022-09-04T12:05:45.618Z,7.50
2022-09-04T12:07:05.575Z,6.60
2022-09-04T12:08:29.470Z,4.13
2022-09-04T12:10:02.183Z,3.10
2022-09-04T12:11:21.951Z,2.53
2022-09-04T12:12:57.144Z,2.60
2022-09-04T12:14:17.363Z,2.70
2022-09-04T12:15:44.442Z,3.30
2022-09-04T12:17:40.723Z,3.47
2022-09-04T12:19:24.033Z,3.37
2022-09-04T12:21:03.006Z,2.60
2022-09-04T12:22:31.082Z,3.10
2022-09-04T12:23:50.583Z,2.90
2022-09-04T12:25:23.625Z,2.53
2022-09-04T12:27:13.818Z,2.80
2022-09-04T12:28:53.224Z,2.83
2022-09-04T12:30:15.777Z,2.20
2022-09-04T12:31:42.356Z,3.70
2022-09-04T12:33:16.315Z,4.00
2022-09-04T12:34:40.759Z,3.43
2022-09-04T12:36:17.762Z,4.10
2022-09-04T12:37:57.966Z,2.37
2022-09-04T12:39:16.080Z,4.83
2022-09-04T12:40:45.164Z,2.87
2022-09-04T12:41:57.537Z,2.70
2022-09-04T12:43:16.276Z,4.67
2022-09-04T12:44:27.205Z,2.27
2022-09-04T12:45:43.206Z,4.20
2022-09-04T12:47:14.019Z,3.70
2022-09-04T12:48:26.207Z,2.40
2022-09-04T12:49:49.360Z,4.50
2022-09-04T12:50:59.786Z,2.70
2022-09-04T12:52:17.375Z,2.50
2022-09-04T12:53:49.306Z,1.90
2022-09-04T12:55:05.135Z,2.00
2022-09-04T12:56:13.567Z,7.70
2022-09-04T12:57:30.281Z,2.37
2022-09-04T12:58:52.305Z,5.00
2022-09-04T13:00:07.059Z,2.47
2022-09-04T13:01:21.038Z,2.10
2022-09-04T13:02:34.486Z,2.90
2022-09-04T13:03:42.838Z,3.23
2022-09-04T13:04:57.406Z,1.80
2022-09-04T13:06:09.248Z,1.80
2022-09-04T13:07:28.011Z,1.80
2022-09-04T13:08:45.543Z,2.13
2022-09-04T13:09:55.214Z,3.20
2022-09-04T13:11:09.644Z,2.00
2022-09-04T13:12:22.207Z,3.37
2022-09-04T13:13:35.820Z,2.13
2022-09-04T13:14:59.919Z,2.07
2022-09-04T13:16:10.126Z,2.00
2022-09-04T13:17:19.754Z,2.40
2022-09-04T13:18:44.748Z,2.27
2022-09-04T13:20:00.464Z,1.90
2022-09-04T13:21:16.001Z,2.10
2022-09-04T13:22:28.180Z,2.00
2022-09-04T13:23:48.744Z,1.60
2022-09-04T13:25:02.333Z,2.33
2022-09-04T13:26:24.352Z,4.30
2022-09-04T13:27:43.918Z,3.57
2022-09-04T13:28:57.082Z,2.33
2022-09-04T13:30:07.098Z,2.30
2022-09-04T13:31:40.946Z,3.33
2022-09-04T13:32:56.758Z,2.57
2022-09-04T13:34:11.086Z,3.13
2022-09-04T13:35:24.933Z,2.20
2022-09-04T13:36:38.721Z,3.37
2022-09-04T13:37:56.528Z,2.07
2022-09-04T13:39:33.095Z,2.00
2022-09-04T13:41:00.716Z,2.13
2022-09-04T13:42:35.826Z,2.03
2022-09-04T13:43:59.458Z,2.20
2022-09-04T13:45:07.488Z,2.60
2022-09-04T13:46:14.611Z,2.00
2022-09-04T13:47:22.936Z,2.37
2022-09-04T13:48:41.609Z,3.80
2022-09-04T13:49:49.322Z,3.33
2022-09-04T13:50:56.740Z,2.60
2022-09-04T13:52:04.126Z,1.73
2022-09-04T13:53:16.235Z,3.03
2022-09-04T13:54:22.560Z,3.47
2022-09-04T13:55:28.372Z,2.57
2022-09-04T13:56:34.225Z,2.10
2022-09-04T13:57:42.568Z,3.87
2022-09-04T13:58:51.118Z,3.93
2022-09-04T13:59:59.042Z,2.50
2022-09-04T14:01:07.079Z,4.60
2022-09-04T14:02:12.540Z,2.03
2022-09-04T14:03:27.119Z,2.40
2022-09-04T14:04:34.715Z,2.30
2022-09-04T14:05:38.464Z,2.60
2022-09-04T14:06:40.462Z,2.27
2022-09-04T14:07:45.993Z,2.77
2022-09-04T14:09:05.054Z,2.50
2022-09-04T14:10:14.598Z,3.03
2022-09-04T14:11:40.444Z,2.30
2022-09-04T14:13:06.428Z,4.00
2022-09-04T14:14:45.893Z,2.13
2022-09-04T14:16:04.166Z,2.10
2022-09-04T14:17:07.104Z,6.40
2022-09-04T14:18:23.129Z,2.40
2022-09-04T14:19:42.480Z,2.73
2022-09-04T14:20:57.975Z,4.70
2022-09-04T14:22:17.226Z,5.87
2022-09-04T14:23:24.323Z,2.40
2022-09-04T14:24:34.704Z,2.27
2022-09-04T14:25:50.859Z,2.60
2022-09-04T14:26:57.869Z,2.40
2022-09-04T14:28:04.419Z,2.33
2022-09-04T14:29:21.246Z,2.37
2022-09-04T14:30:25.226Z,2.40
2022-09-04T14:31:35.110Z,2.40
2022-09-04T14:32:57.810Z,3.20
2022-09-04T14:34:07.407Z,2.73
2022-09-04T14:35:19.044Z,4.93
2022-09-04T14:36:35.322Z,4.63
2022-09-04T14:38:07.342Z,2.23
2022-09-04T14:39:18.087Z,2.20
2022-09-04T14:40:29.276Z,2.77
2022-09-04T14:41:44.671Z,2.57
2022-09-04T14:42:57.993Z,2.33
2022-09-04T14:44:13.904Z,6.50
2022-09-04T14:45:33.302Z,2.90
2022-09-04T14:46:50.806Z,2.37
2022-09-04T14:47:57.531Z,2.03
2022-09-04T14:49:02.958Z,2.63
2022-09-04T14:50:09.581Z,2.93
2022-09-04T14:51:17.089Z,2.30
2022-09-04T14:52:23.914Z,3.93
2022-09-04T14:53:31.761Z,3.73
2022-09-04T14:54:43.532Z,3.73
2022-09-04T14:56:13.104Z,2.67
2022-09-04T14:57:23.761Z,4.60
2022-09-04T14:58:33.450Z,4.87
2022-09-04T14:59:42.746Z,5.10
2022-09-04T15:00:58.672Z,4.23
2022-09-04T15:02:18.300Z,3.70
2022-09-04T15:03:25.524Z,4.90
2022-09-04T15:04:34.947Z,2.60
2022-09-04T15:05:47.306Z,6.13
2022-09-04T15:07:10.750Z,5.50
2022-09-04T15:08:28.611Z,2.10
2022-09-04T15:09:35.836Z,3.23
2022-09-04T15:10:49.994Z,4.97
2022-09-04T15:12:14.387Z,4.00
2022-09-04T15:13:52.699Z,3.30
2022-09-04T15:15:04.268Z,2.67
2022-09-04T15:16:18.193Z,2.50
2022-09-04T15:17:28.129Z,2.63
2022-09-04T15:18:37.111Z,4.13
2022-09-04T15:19:47.627Z,3.40
2022-09-04T15:20:56.050Z,2.50
2022-09-04T15:22:03.170Z,2.80
2022-09-04T15:23:13.808Z,2.60
2022-09-04T15:24:23.313Z,3.03
2022-09-04T15:25:57.681Z,2.70
2022-09-04T15:27:13.471Z,3.60
2022-09-04T15:28:25.207Z,6.67
2022-09-04T15:29:35.894Z,2.27
2022-09-04T15:30:45.543Z,4.03
2022-09-04T15:31:47.621Z,2.50
2022-09-04T15:33:05.528Z,2.50
2022-09-04T15:34:12.162Z,4.20
2022-09-04T15:35:16.961Z,3.77
2022-09-04T15:36:24.689Z,4.43
2022-09-04T15:37:28.352Z,2.53
2022-09-04T15:38:31.847Z,2.60
2022-09-04T15:39:41.035Z,3.03
2022-09-04T15:41:12.719Z,3.60
2022-09-04T15:42:13.239Z,2.60
2022-09-04T15:43:24.674Z,2.63
2022-09-04T15:44:32.792Z,3.30
2022-09-04T15:45:43.800Z,3.87
2022-09-04T15:46:56.301Z,2.63
2022-09-04T15:48:17.096Z,3.33
2022-09-04T15:49:26.892Z,2.97
2022-09-04T15:50:35.131Z,3.00
2022-09-04T15:51:42.308Z,4.13
2022-09-04T15:52:51.433Z,3.27
2022-09-04T15:54:27.055Z,2.40
2022-09-04T15:55:33.742Z,2.43
2022-09-04T15:56:41.933Z,3.23
2022-09-04T15:57:55.895Z,2.80
2022-09-04T15:59:04.802Z,3.40
2022-09-04T16:00:11.388Z,2.53
2022-09-04T16:01:20.082Z,3.00
2022-09-04T16:02:36.286Z,3.80
2022-09-04T16:03:51.835Z,2.57
2022-09-04T16:05:03.092Z,4.50
2022-09-04T16:06:15.984Z,4.10
2022-09-04T16:07:36.701Z,4.07
2022-09-04T16:08:47.005Z,2.80
2022-09-04T16:09:54.156Z,2.83
2022-09-04T16:11:02.275Z,4.90
2022-09-04T16:12:12.673Z,2.73
2022-09-04T16:13:46.307Z,2.57
2022-09-04T16:14:52.536Z,2.63
2022-09-04T16:16:04.026Z,2.70
2022-09-04T16:17:12.821Z,4.00
2022-09-04T16:18:22.185Z,2.30
2022-09-04T16:19:33.058Z,4.60
2022-09-04T16:20:46.817Z,2.60
2022-09-04T16:22:01.639Z,4.40
2022-09-04T16:23:09.010Z,4.40
2022-09-04T16:24:15.266Z,4.93
2022-09-04T16:25:27.234Z,5.30
2022-09-04T16:26:32.275Z,5.53
2022-09-04T16:27:42.854Z,2.80
2022-09-04T16:28:51.279Z,4.47
2022-09-04T16:29:57.399Z,4.77
2022-09-04T16:31:01.903Z,4.37
2022-09-04T16:32:09.576Z,2.83
2022-09-04T16:33:27.985Z,5.50
2022-09-04T16:34:38.315Z,2.87
2022-09-04T16:35:44.018Z,3.47
2022-09-04T16:36:51.392Z,3.23
2022-09-04T16:38:04.206Z,2.47
2022-09-04T16:39:13.336Z,2.50
2022-09-04T16:40:27.343Z,5.00
2022-09-04T16:41:37.476Z,3.10
2022-09-04T16:42:43.957Z,2.90
2022-09-04T16:44:08.762Z,4.57
2022-09-04T16:45:17.947Z,2.97
2022-09-04T16:46:29.746Z,3.87
2022-09-04T16:47:38.306Z,3.27
2022-09-04T16:48:50.556Z,4.27
2022-09-04T16:50:02.531Z,4.27
2022-09-04T16:51:39.053Z,3.13
2022-09-04T16:53:13.112Z,4.93
2022-09-04T16:54:28.607Z,4.20
2022-09-04T16:55:36.118Z,3.07
2022-09-04T16:56:42.761Z,2.93
2022-09-04T16:58:02.580Z,3.00
2022-09-04T16:59:18.228Z,3.77
2022-09-04T17:00:22.268Z,3.83
2022-09-04T17:01:31.947Z,7.07
2022-09-04T17:02:43.059Z,5.97
2022-09-04T17:04:12.498Z,6.23
2022-09-04T17:05:27.894Z,10.83
2022-09-04T17:06:35.936Z,4.00
2022-09-04T17:07:47.933Z,4.57
2022-09-04T17:08:58.178Z,6.47
2022-09-04T17:10:05.754Z,12.00
2022-09-04T17:11:14.734Z,3.50
2022-09-04T17:12:25.996Z,4.20
2022-09-04T17:13:37.927Z,4.60
2022-09-04T17:14:47.809Z,3.10